Time;durP1;ratioP1;P1;durP2;ratioP2;P2;SDS_P1;SDS_P2;PMS_P1;PMS_P2;Temp;Humidity;BMP_temperature;BMP_pressure;BME280_temperature;BME280_humidity;BME280_pressure;Samples;Min_cycle;Max_cycle;Signal;HPM_P1;HPM_P2
2023/01/07 00:00:30;;;;;;;;;;;8.90;99.90;;;;;;4976403;28;19980;-83
2023/01/07 00:02:55;;;;;;;;;;;8.90;99.90;;;;;;4962267;28;19968;-83
2023/01/07 00:05:21;;;;;;;;;;;9.00;99.90;;;;;;4981441;28;20332;-83
2023/01/07 00:07:46;;;;;;;;;;;9.00;99.90;;;;;;4957339;28;19932;-83
2023/01/07 00:10:12;;;;;;;;;;;9.10;99.90;;;;;;4974543;28;19944;-83
2023/01/07 00:12:38;;;;;;;;;;;9.10;99.90;;;;;;4951204;28;19928;-83
2023/01/07 00:15:04;;;;;;;;;;;9.20;99.90;;;;;;4977424;28;20014;-83
2023/01/07 00:17:29;;;;;;;;;;;9.20;99.90;;;;;;4964718;28;19921;-83
2023/01/07 00:19:55;;;;;;;;;;;9.20;99.90;;;;;;4961523;28;19918;-83
2023/01/07 00:22:20;;;;;;;;;;;9.80;99.90;;;;;;4961998;28;19996;-83
2023/01/07 00:24:46;;;;;;;;;;;9.30;99.90;;;;;;4959144;28;20336;-82
2023/01/07 00:27:11;;;;;;;;;;;9.30;99.90;;;;;;4978819;28;19918;-83
2023/01/07 00:29:37;;;;;;;;;;;9.40;99.90;;;;;;4958352;28;20373;-82
2023/01/07 00:32:02;;;;;;;;;;;9.40;99.90;;;;;;4961966;28;19949;-83
2023/01/07 00:34:28;;;;;;;;;;;9.40;99.90;;;;;;4959590;28;19926;-83
2023/01/07 00:37:48;;;;;;;;;;;9.40;99.90;;;;;;4959233;28;19968;-83
2023/01/07 00:39:39;;;;;;;;;;;9.70;99.90;;;;;;4962067;28;19949;-83
2023/01/07 00:44:49;;;;;;;;;;;9.70;99.90;;;;;;4962951;28;19918;-83
2023/01/07 00:47:14;;;;;;;;;;;9.90;99.90;;;;;;4961633;28;19926;-83
2023/01/07 00:49:40;;;;;;;;;;;10.40;99.90;;;;;;4980173;28;19922;-83
2023/01/07 00:52:05;;;;;;;;;;;9.60;99.90;;;;;;4973804;28;20270;-83
2023/01/07 00:54:31;;;;;;;;;;;9.60;99.90;;;;;;4959437;28;19929;-83
2023/01/07 00:56:56;;;;;;;;;;;9.60;99.90;;;;;;4957253;28;19925;-83
2023/01/07 00:59:22;;;;;;;;;;;9.60;99.90;;;;;;4951822;28;19925;-83
2023/01/07 01:01:47;;;;;;;;;;;9.70;99.90;;;;;;4979975;28;19918;-83
2023/01/07 01:04:13;;;;;;;;;;;9.70;99.90;;;;;;4947120;28;19922;-83
2023/01/07 01:06:39;;;;;;;;;;;9.70;99.90;;;;;;4984033;28;19929;-83
2023/01/07 01:09:04;;;;;;;;;;;9.90;99.90;;;;;;4961575;28;19921;-83
2023/01/07 01:11:30;;;;;;;;;;;9.80;99.90;;;;;;4976907;28;20008;-83
2023/01/07 01:13:55;;;;;;;;;;;9.80;99.90;;;;;;4984337;28;19975;-83
2023/01/07 01:16:21;;;;;;;;;;;9.80;99.90;;;;;;4974154;28;19918;-83
2023/01/07 01:18:47;;;;;;;;;;;9.80;99.90;;;;;;4960056;28;19981;-83
2023/01/07 01:21:13;;;;;;;;;;;9.80;99.90;;;;;;4962797;28;19932;-83
2023/01/07 01:23:39;;;;;;;;;;;9.90;99.90;;;;;;4958287;28;19980;-83
2023/01/07 01:26:06;;;;;;;;;;;9.80;99.90;;;;;;4962880;28;19969;-83
2023/01/07 01:28:32;;;;;;;;;;;9.90;99.90;;;;;;4955469;28;19992;-83
2023/01/07 01:30:57;;;;;;;;;;;9.90;99.90;;;;;;4956630;28;20012;-83
2023/01/07 01:33:23;;;;;;;;;;;10.50;99.90;;;;;;4957973;28;19924;-83
2023/01/07 01:35:49;;;;;;;;;;;9.90;99.90;;;;;;4974393;28;20276;-83
2023/01/07 01:38:14;;;;;;;;;;;9.90;99.90;;;;;;4956494;28;19925;-83
2023/01/07 01:40:40;;;;;;;;;;;9.90;99.90;;;;;;4957081;28;19981;-83
2023/01/07 01:43:24;;;;;;;;;;;9.90;99.90;;;;;;4972405;28;19918;-83
2023/01/07 01:45:49;;;;;;;;;;;10.00;99.90;;;;;;4985402;28;19929;-83
2023/01/07 01:48:15;;;;;;;;;;;10.00;99.90;;;;;;4980057;28;19922;-82
2023/01/07 01:50:42;;;;;;;;;;;10.00;99.90;;;;;;4974494;28;19918;-83
2023/01/07 01:53:11;;;;;;;;;;;10.10;99.90;;;;;;4978472;28;20053;-83
2023/01/07 01:55:39;;;;;;;;;;;10.10;99.90;;;;;;4972873;28;19988;-83
2023/01/07 01:58:10;;;;;;;;;;;10.70;99.90;;;;;;4977817;28;19924;-83
2023/01/07 02:00:36;;;;;;;;;;;10.10;99.90;;;;;;4978583;28;19930;-82
2023/01/07 02:03:04;;;;;;;;;;;10.10;99.90;;;;;;4978140;28;19925;-83
2023/01/07 02:05:36;;;;;;;;;;;10.10;99.90;;;;;;4957067;28;19922;-83
2023/01/07 02:08:02;;;;;;;;;;;10.20;99.90;;;;;;4961130;28;20053;-83
2023/01/07 02:10:30;;;;;;;;;;;10.20;99.90;;;;;;4954964;28;20000;-83
2023/01/07 02:12:59;;;;;;;;;;;10.20;99.90;;;;;;4962195;28;19945;-83
2023/01/07 02:15:43;;;;;;;;;;;10.20;99.90;;;;;;4955287;28;19922;-83
2023/01/07 02:18:22;;;;;;;;;;;10.20;99.90;;;;;;4956821;28;19921;-83
2023/01/07 02:20:54;;;;;;;;;;;10.20;99.90;;;;;;4976833;28;19926;-83
2023/01/07 02:23:32;;;;;;;;;;;10.20;99.90;;;;;;4960437;28;19932;-83
2023/01/07 02:26:09;;;;;;;;;;;10.20;99.90;;;;;;4962686;28;20402;-83
2023/01/07 02:28:38;;;;;;;;;;;10.20;99.90;;;;;;4960811;28;19930;-83
2023/01/07 02:31:06;;;;;;;;;;;10.20;99.90;;;;;;4972391;28;19961;-83
2023/01/07 02:33:36;;;;;;;;;;;10.20;99.90;;;;;;4971003;28;20001;-82
2023/01/07 02:36:10;;;;;;;;;;;10.20;99.90;;;;;;4975358;28;19973;-83
2023/01/07 02:38:51;;;;;;;;;;;10.20;99.90;;;;;;4977904;28;19922;-83
2023/01/07 02:41:29;;;;;;;;;;;10.20;99.90;;;;;;4958951;28;20337;-83
2023/01/07 02:44:05;;;;;;;;;;;10.20;99.90;;;;;;4972334;28;19922;-83
2023/01/07 02:46:34;;;;;;;;;;;10.30;99.90;;;;;;4974812;28;20258;-82
2023/01/07 02:49:03;;;;;;;;;;;10.30;99.90;;;;;;4976436;28;19925;-83
2023/01/07 02:51:32;;;;;;;;;;;10.30;99.90;;;;;;4978272;28;19924;-82
2023/01/07 02:53:58;;;;;;;;;;;10.30;99.90;;;;;;4962507;28;20284;-83
2023/01/07 02:56:44;;;;;;;;;;;10.50;99.90;;;;;;4938974;28;19918;-83
2023/01/07 02:59:25;;;;;;;;;;;10.30;99.90;;;;;;4940698;28;20399;-83
2023/01/07 03:01:51;;;;;;;;;;;10.30;99.90;;;;;;4983518;28;19917;-84
2023/01/07 03:04:36;;;;;;;;;;;10.30;99.90;;;;;;4958258;28;20028;-83
2023/01/07 03:07:08;;;;;;;;;;;10.30;99.90;;;;;;4963438;28;19922;-83
2023/01/07 03:09:48;;;;;;;;;;;10.40;99.90;;;;;;4954588;28;19921;-83
2023/01/07 03:12:18;;;;;;;;;;;10.30;99.90;;;;;;4958630;28;20427;-83
2023/01/07 03:14:53;;;;;;;;;;;10.40;99.90;;;;;;4971790;28;19937;-83
2023/01/07 03:17:30;;;;;;;;;;;10.40;99.90;;;;;;4970170;28;20235;-83
2023/01/07 03:19:57;;;;;;;;;;;10.40;99.90;;;;;;4964344;28;19996;-83
2023/01/07 03:22:24;;;;;;;;;;;10.40;99.90;;;;;;4956527;28;19928;-83
2023/01/07 03:24:51;;;;;;;;;;;10.40;99.90;;;;;;4957232;28;19922;-83
2023/01/07 03:27:19;;;;;;;;;;;10.40;99.90;;;;;;4957744;28;20477;-83
2023/01/07 03:29:46;;;;;;;;;;;10.40;99.90;;;;;;4954498;28;19922;-83
2023/01/07 03:32:13;;;;;;;;;;;10.60;99.90;;;;;;4974423;28;19922;-83
2023/01/07 03:34:39;;;;;;;;;;;10.40;99.90;;;;;;4957716;28;20400;-83
2023/01/07 03:37:08;;;;;;;;;;;10.40;99.90;;;;;;4974708;28;19918;-83
2023/01/07 03:39:34;;;;;;;;;;;10.40;99.90;;;;;;4948669;28;19953;-83
2023/01/07 03:44:47;;;;;;;;;;;10.30;99.90;;;;;;4957304;28;19922;-82
2023/01/07 03:47:13;;;;;;;;;;;10.30;99.90;;;;;;4963313;28;19928;-83
2023/01/07 03:49:38;;;;;;;;;;;10.30;99.90;;;;;;4963067;28;20004;-83
2023/01/07 03:52:04;;;;;;;;;;;10.30;99.90;;;;;;4980609;28;19917;-83
2023/01/07 03:54:29;;;;;;;;;;;10.30;99.90;;;;;;4981907;28;19973;-83
2023/01/07 03:56:55;;;;;;;;;;;10.30;99.90;;;;;;4960861;28;20440;-83
2023/01/07 03:59:20;;;;;;;;;;;10.30;99.90;;;;;;4979391;28;19918;-83
2023/01/07 04:01:46;;;;;;;;;;;10.30;99.90;;;;;;4975071;28;20361;-83
2023/01/07 04:04:11;;;;;;;;;;;10.30;99.90;;;;;;4956862;28;20005;-83
2023/01/07 04:06:37;;;;;;;;;;;10.30;99.90;;;;;;4960618;28;19918;-83
2023/01/07 04:09:02;;;;;;;;;;;10.30;99.90;;;;;;4980873;28;20229;-83
2023/01/07 04:11:28;;;;;;;;;;;10.30;99.90;;;;;;4975745;28;19925;-83
2023/01/07 04:13:53;;;;;;;;;;;10.30;99.90;;;;;;4970216;28;19934;-83
2023/01/07 04:16:19;;;;;;;;;;;9.70;99.90;;;;;;4978739;28;19918;-83
2023/01/07 04:18:44;;;;;;;;;;;10.30;99.90;;;;;;4953459;28;19925;-83
2023/01/07 04:21:10;;;;;;;;;;;10.30;99.90;;;;;;4956864;28;19922;-83
2023/01/07 04:23:35;;;;;;;;;;;10.30;99.90;;;;;;4982706;28;19933;-83
2023/01/07 04:26:01;;;;;;;;;;;10.30;99.90;;;;;;4958685;28;20082;-83
2023/01/07 04:28:27;;;;;;;;;;;10.30;99.90;;;;;;4978929;28;19951;-83
2023/01/07 04:30:52;;;;;;;;;;;10.30;99.90;;;;;;4978847;28;19952;-83
2023/01/07 04:33:18;;;;;;;;;;;10.30;99.90;;;;;;4957272;28;20009;-83
2023/01/07 04:35:44;;;;;;;;;;;10.30;99.90;;;;;;4981421;28;20423;-82
2023/01/07 04:38:10;;;;;;;;;;;10.30;99.90;;;;;;4978742;28;20380;-83
2023/01/07 04:40:35;;;;;;;;;;;10.30;99.90;;;;;;4963736;28;19919;-83
2023/01/07 04:43:01;;;;;;;;;;;10.30;99.90;;;;;;4976212;28;19929;-82
2023/01/07 04:45:27;;;;;;;;;;;10.30;99.90;;;;;;4958703;28;19937;-82
2023/01/07 04:47:55;;;;;;;;;;;10.20;99.90;;;;;;4981190;28;19922;-83
2023/01/07 04:50:21;;;;;;;;;;;10.30;99.90;;;;;;4956651;28;20030;-83
2023/01/07 04:52:46;;;;;;;;;;;10.40;99.90;;;;;;4959761;28;19938;-83
2023/01/07 04:55:12;;;;;;;;;;;10.30;99.90;;;;;;4960432;28;19980;-83
2023/01/07 04:57:37;;;;;;;;;;;10.20;99.90;;;;;;4961484;28;20451;-83
2023/01/07 05:00:04;;;;;;;;;;;10.70;99.90;;;;;;4959283;28;19929;-83
2023/01/07 05:02:29;;;;;;;;;;;10.20;99.90;;;;;;4981211;28;20004;-83
2023/01/07 05:04:55;;;;;;;;;;;10.30;99.90;;;;;;4968011;28;20017;-83
2023/01/07 05:07:20;;;;;;;;;;;10.30;99.90;;;;;;4964944;28;20024;-83
2023/01/07 05:09:46;;;;;;;;;;;10.20;99.90;;;;;;4956365;28;19925;-83
2023/01/07 05:12:12;;;;;;;;;;;10.20;99.90;;;;;;4960441;28;19918;-83
2023/01/07 05:14:37;;;;;;;;;;;10.20;99.90;;;;;;4962545;28;19922;-83
2023/01/07 05:17:03;;;;;;;;;;;10.20;99.90;;;;;;4986105;28;19922;-83
2023/01/07 05:19:28;;;;;;;;;;;10.20;99.90;;;;;;4958411;28;19948;-83
2023/01/07 05:21:54;;;;;;;;;;;10.20;99.90;;;;;;4973621;28;19940;-83
2023/01/07 05:24:19;;;;;;;;;;;10.20;99.90;;;;;;4974758;28;19925;-83
2023/01/07 05:26:45;;;;;;;;;;;10.20;99.90;;;;;;4974727;28;19921;-84
2023/01/07 05:29:10;;;;;;;;;;;10.10;99.90;;;;;;4942793;28;19918;-83
2023/01/07 05:31:36;;;;;;;;;;;10.20;99.90;;;;;;4958054;28;19918;-83
2023/01/07 05:34:01;;;;;;;;;;;10.10;99.90;;;;;;4963471;28;20374;-82
2023/01/07 05:36:27;;;;;;;;;;;10.20;99.90;;;;;;4959318;28;19934;-82
2023/01/07 05:38:52;;;;;;;;;;;10.20;99.90;;;;;;4956662;28;20432;-82
2023/01/07 05:41:18;;;;;;;;;;;10.20;99.90;;;;;;4957625;28;20436;-83
2023/01/07 05:43:43;;;;;;;;;;;10.20;99.90;;;;;;4982235;28;19926;-83
2023/01/07 05:46:09;;;;;;;;;;;10.20;99.90;;;;;;4961173;28;20153;-82
2023/01/07 05:48:34;;;;;;;;;;;10.20;99.90;;;;;;4958542;28;19933;-83
2023/01/07 05:51:00;;;;;;;;;;;10.50;99.90;;;;;;4957995;28;19922;-82
2023/01/07 05:53:25;;;;;;;;;;;10.20;99.90;;;;;;4965580;28;19925;-82
2023/01/07 05:55:55;;;;;;;;;;;10.90;99.90;;;;;;4961440;28;19972;-83
2023/01/07 05:58:20;;;;;;;;;;;10.10;99.90;;;;;;4983464;28;19929;-83
2023/01/07 06:00:46;;;;;;;;;;;10.20;99.90;;;;;;4943628;28;19921;-83
2023/01/07 06:03:11;;;;;;;;;;;10.20;99.90;;;;;;4961652;28;19918;-83
2023/01/07 06:05:37;;;;;;;;;;;10.20;99.90;;;;;;4957321;28;19922;-83
2023/01/07 06:08:02;;;;;;;;;;;10.30;99.90;;;;;;4977635;28;19921;-83
2023/01/07 06:10:28;;;;;;;;;;;10.20;99.90;;;;;;4972025;28;19928;-83
2023/01/07 06:12:54;;;;;;;;;;;10.20;99.90;;;;;;4975602;28;19976;-83
2023/01/07 06:15:19;;;;;;;;;;;10.30;99.90;;;;;;4941275;28;20001;-83
2023/01/07 06:17:45;;;;;;;;;;;10.20;99.90;;;;;;4959818;28;19980;-83
2023/01/07 06:20:11;;;;;;;;;;;10.20;99.90;;;;;;4973951;28;20391;-83
2023/01/07 06:22:36;;;;;;;;;;;10.20;99.90;;;;;;4975019;28;19969;-82
2023/01/07 06:25:02;;;;;;;;;;;10.20;99.90;;;;;;4980734;28;19976;-83
2023/01/07 06:27:28;;;;;;;;;;;10.20;99.90;;;;;;4945551;28;19922;-83
2023/01/07 06:29:53;;;;;;;;;;;10.20;99.90;;;;;;4961334;28;20385;-83
2023/01/07 06:32:19;;;;;;;;;;;10.20;99.90;;;;;;4972709;28;19918;-83
2023/01/07 06:34:44;;;;;;;;;;;10.20;99.90;;;;;;4957364;28;19937;-83
2023/01/07 06:37:10;;;;;;;;;;;10.20;99.90;;;;;;4955387;28;19968;-83
2023/01/07 06:39:35;;;;;;;;;;;10.20;99.90;;;;;;4954799;28;19929;-83
2023/01/07 06:42:01;;;;;;;;;;;10.80;99.90;;;;;;4968852;28;19918;-82
2023/01/07 06:44:26;;;;;;;;;;;10.20;99.90;;;;;;4964853;28;20320;-83
2023/01/07 06:46:52;;;;;;;;;;;10.20;99.90;;;;;;4954616;28;20381;-83
2023/01/07 06:49:17;;;;;;;;;;;10.20;99.90;;;;;;4960851;28;19932;-83
2023/01/07 06:51:43;;;;;;;;;;;10.20;99.90;;;;;;4958376;28;19980;-83
2023/01/07 06:54:09;;;;;;;;;;;10.10;99.90;;;;;;4958177;28;19930;-83
2023/01/07 06:56:34;;;;;;;;;;;10.20;99.90;;;;;;4957823;28;19989;-82
2023/01/07 06:59:00;;;;;;;;;;;10.10;99.90;;;;;;4956628;28;20064;-83
2023/01/07 07:01:25;;;;;;;;;;;10.20;99.90;;;;;;4976933;28;19922;-83
2023/01/07 07:03:51;;;;;;;;;;;10.10;99.90;;;;;;4977456;28;20322;-83
2023/01/07 07:06:16;;;;;;;;;;;10.20;99.90;;;;;;4981217;28;19922;-82
2023/01/07 07:08:42;;;;;;;;;;;10.20;99.90;;;;;;4979940;28;19922;-83
2023/01/07 07:11:07;;;;;;;;;;;10.10;99.90;;;;;;4974923;28;19918;-83
2023/01/07 07:13:33;;;;;;;;;;;10.10;99.90;;;;;;4974719;28;19926;-83
2023/01/07 07:15:58;;;;;;;;;;;10.10;99.90;;;;;;4974104;28;19961;-81
2023/01/07 07:18:24;;;;;;;;;;;10.60;99.90;;;;;;4960401;28;20150;-82
2023/01/07 07:20:49;;;;;;;;;;;10.20;99.90;;;;;;4976438;28;19918;-83
2023/01/07 07:23:15;;;;;;;;;;;10.30;99.90;;;;;;4971743;28;19933;-82
2023/01/07 07:25:41;;;;;;;;;;;10.20;99.90;;;;;;4958571;28;20336;-82
2023/01/07 07:28:06;;;;;;;;;;;10.20;99.90;;;;;;4960040;28;20289;-82
2023/01/07 07:30:33;;;;;;;;;;;10.20;99.90;;;;;;4962508;28;19961;-82
2023/01/07 07:33:05;;;;;;;;;;;10.20;99.90;;;;;;4971792;28;19961;-82
2023/01/07 07:35:31;;;;;;;;;;;10.20;99.90;;;;;;4965162;28;19926;-82
2023/01/07 07:37:56;;;;;;;;;;;10.10;99.90;;;;;;4956582;28;19925;-82
2023/01/07 07:40:22;;;;;;;;;;;10.60;99.90;;;;;;4970140;28;20369;-82
2023/01/07 07:42:47;;;;;;;;;;;10.50;99.90;;;;;;4959673;28;19918;-82
2023/01/07 07:45:15;;;;;;;;;;;10.20;99.90;;;;;;4976302;28;20385;-81
2023/01/07 07:47:41;;;;;;;;;;;10.20;99.90;;;;;;4975567;28;19922;-82
2023/01/07 07:50:06;;;;;;;;;;;10.10;99.90;;;;;;4971103;28;19918;-81
2023/01/07 07:52:32;;;;;;;;;;;10.10;99.90;;;;;;4980067;28;19922;-84
2023/01/07 07:54:57;;;;;;;;;;;10.20;99.90;;;;;;4972756;28;19964;-84
2023/01/07 07:57:23;;;;;;;;;;;10.40;99.90;;;;;;4959681;28;19980;-82
2023/01/07 07:59:48;;;;;;;;;;;10.20;99.90;;;;;;4973321;28;19918;-82
2023/01/07 08:02:14;;;;;;;;;;;10.10;99.90;;;;;;4957347;28;20008;-86
2023/01/07 08:04:39;;;;;;;;;;;10.40;99.90;;;;;;4970339;28;19918;-86
2023/01/07 08:07:05;;;;;;;;;;;10.10;99.90;;;;;;4957442;28;19961;-85
2023/01/07 08:09:30;;;;;;;;;;;10.10;99.90;;;;;;4976312;28;19953;-88
2023/01/07 08:11:56;;;;;;;;;;;10.40;99.90;;;;;;4959991;28;19922;-85
2023/01/07 08:14:21;;;;;;;;;;;10.10;99.90;;;;;;4975252;28;19925;-84
2023/01/07 08:16:47;;;;;;;;;;;10.10;99.90;;;;;;4959290;28;19965;-85
2023/01/07 08:19:14;;;;;;;;;;;10.00;99.90;;;;;;4977702;28;19948;-84
2023/01/07 08:21:39;;;;;;;;;;;10.00;99.90;;;;;;4965014;28;19917;-85
2023/01/07 08:24:05;;;;;;;;;;;10.00;99.90;;;;;;4962729;28;20373;-85
2023/01/07 08:26:31;;;;;;;;;;;10.00;99.90;;;;;;4974616;28;20344;-85
2023/01/07 08:28:56;;;;;;;;;;;11.00;99.90;;;;;;4976235;28;19922;-85
2023/01/07 08:31:22;;;;;;;;;;;10.50;99.90;;;;;;4975246;28;19934;-87
2023/01/07 08:33:47;;;;;;;;;;;10.00;99.90;;;;;;4981232;28;19917;-85
2023/01/07 08:36:13;;;;;;;;;;;10.00;99.90;;;;;;4958741;28;19922;-84
2023/01/07 08:38:38;;;;;;;;;;;10.00;99.90;;;;;;4961607;28;20403;-83
2023/01/07 08:41:04;;;;;;;;;;;10.50;99.90;;;;;;4965749;28;19925;-84
2023/01/07 08:43:30;;;;;;;;;;;10.00;99.90;;;;;;4956954;28;19918;-84
2023/01/07 08:45:55;;;;;;;;;;;10.00;99.90;;;;;;4959820;28;19921;-84
2023/01/07 08:48:21;;;;;;;;;;;10.00;99.90;;;;;;4961755;28;20059;-84
2023/01/07 08:50:51;;;;;;;;;;;10.00;99.90;;;;;;4960192;28;19925;-84
2023/01/07 08:53:17;;;;;;;;;;;10.10;99.90;;;;;;4960117;28;19918;-84
2023/01/07 08:55:42;;;;;;;;;;;10.00;99.90;;;;;;4960087;28;19929;-83
2023/01/07 08:58:08;;;;;;;;;;;10.10;99.90;;;;;;4960956;28;19918;-83
2023/01/07 09:00:33;;;;;;;;;;;10.10;99.90;;;;;;4963887;28;19918;-84
2023/01/07 09:03:00;;;;;;;;;;;10.10;99.90;;;;;;4979954;28;19917;-83
2023/01/07 09:05:26;;;;;;;;;;;10.00;99.90;;;;;;4980253;28;19937;-82
2023/01/07 09:07:52;;;;;;;;;;;10.00;99.90;;;;;;4974987;28;19921;-82
2023/01/07 09:10:18;;;;;;;;;;;10.00;99.90;;;;;;4963974;28;20377;-82
2023/01/07 09:12:43;;;;;;;;;;;10.00;99.90;;;;;;4960598;28;19973;-83
2023/01/07 09:15:10;;;;;;;;;;;10.00;99.90;;;;;;4954969;28;19922;-82
2023/01/07 09:17:35;;;;;;;;;;;10.00;99.90;;;;;;4972191;28;19926;-82
2023/01/07 09:20:02;;;;;;;;;;;9.90;99.90;;;;;;4980454;28;20332;-82
2023/01/07 09:22:29;;;;;;;;;;;9.90;99.90;;;;;;4976708;28;19972;-82
2023/01/07 09:24:55;;;;;;;;;;;9.90;99.90;;;;;;4960976;28;19945;-82
2023/01/07 09:27:21;;;;;;;;;;;10.10;99.90;;;;;;4982736;28;19922;-83
2023/01/07 09:29:47;;;;;;;;;;;10.20;99.90;;;;;;4951818;28;19923;-83
2023/01/07 09:32:13;;;;;;;;;;;9.80;99.90;;;;;;4971610;28;20427;-82
2023/01/07 09:34:38;;;;;;;;;;;9.90;99.90;;;;;;4956314;28;19980;-83
2023/01/07 09:37:04;;;;;;;;;;;9.80;99.90;;;;;;4977294;28;19941;-82
2023/01/07 09:39:29;;;;;;;;;;;9.80;99.90;;;;;;4976606;28;19922;-82
2023/01/07 09:42:14;;;;;;;;;;;10.00;99.90;;;;;;4963930;28;19928;-82
2023/01/07 09:44:47;;;;;;;;;;;9.80;99.90;;;;;;4955708;28;19994;-82
2023/01/07 09:47:15;;;;;;;;;;;9.80;99.90;;;;;;4973338;28;20404;-82
2023/01/07 09:49:43;;;;;;;;;;;9.70;99.90;;;;;;4960297;28;19922;-83
2023/01/07 09:52:14;;;;;;;;;;;9.80;99.90;;;;;;4960132;28;20419;-82
2023/01/07 09:54:40;;;;;;;;;;;9.80;99.90;;;;;;4976542;28;19954;-82
2023/01/07 09:57:09;;;;;;;;;;;9.80;99.90;;;;;;4973043;28;19929;-82
2023/01/07 09:59:34;;;;;;;;;;;10.10;99.90;;;;;;4959208;28;19925;-83
2023/01/07 10:02:15;;;;;;;;;;;9.90;99.90;;;;;;4961626;28;20308;-82
2023/01/07 10:04:48;;;;;;;;;;;9.80;99.90;;;;;;4956676;28;19922;-82
2023/01/07 10:07:14;;;;;;;;;;;9.80;99.90;;;;;;4961978;28;19918;-83
2023/01/07 10:09:58;;;;;;;;;;;9.80;99.90;;;;;;4977724;28;19926;-82
2023/01/07 10:12:32;;;;;;;;;;;9.80;99.90;;;;;;4971808;28;19922;-83
2023/01/07 10:15:10;;;;;;;;;;;9.80;99.90;;;;;;4978371;28;20020;-82
2023/01/07 10:17:40;;;;;;;;;;;9.80;99.90;;;;;;4958583;28;19949;-83
2023/01/07 10:20:19;;;;;;;;;;;9.80;99.90;;;;;;4978557;28;20082;-83
2023/01/07 10:23:02;;;;;;;;;;;9.80;99.90;;;;;;4979657;28;19921;-83
2023/01/07 10:25:30;;;;;;;;;;;9.80;99.90;;;;;;4972255;28;19922;-82
2023/01/07 10:28:01;;;;;;;;;;;9.80;99.90;;;;;;4977720;28;19929;-83
2023/01/07 10:30:29;;;;;;;;;;;9.80;99.90;;;;;;4971432;28;20337;-83
2023/01/07 10:33:01;;;;;;;;;;;9.80;99.90;;;;;;4954795;28;20117;-82
2023/01/07 10:35:29;;;;;;;;;;;9.80;99.90;;;;;;4972124;28;19918;-83
2023/01/07 10:37:57;;;;;;;;;;;9.80;99.90;;;;;;4954165;28;19922;-82
2023/01/07 10:40:28;;;;;;;;;;;10.40;99.90;;;;;;4972261;28;19954;-82
2023/01/07 10:43:01;;;;;;;;;;;10.00;99.90;;;;;;4965656;28;19921;-82
2023/01/07 10:45:40;;;;;;;;;;;10.10;99.90;;;;;;4978455;28;19964;-83
2023/01/07 10:48:25;;;;;;;;;;;10.10;99.90;;;;;;4980400;28;19922;-83
2023/01/07 10:51:00;;;;;;;;;;;10.20;99.90;;;;;;4978954;28;19928;-83
2023/01/07 10:53:29;;;;;;;;;;;10.50;99.90;;;;;;4971597;28;19926;-82
2023/01/07 10:56:03;;;;;;;;;;;10.30;99.90;;;;;;4960916;28;19976;-83
2023/01/07 10:58:41;;;;;;;;;;;10.40;99.90;;;;;;4979203;28;19968;-82
2023/01/07 11:01:07;;;;;;;;;;;10.40;99.90;;;;;;4959423;28;20364;-83
2023/01/07 11:03:33;;;;;;;;;;;10.40;99.90;;;;;;4976398;28;19968;-83
2023/01/07 11:06:03;;;;;;;;;;;10.50;99.90;;;;;;4971491;28;19918;-83
2023/01/07 11:08:31;;;;;;;;;;;10.80;99.90;;;;;;4975274;28;19925;-83
2023/01/07 11:10:57;;;;;;;;;;;10.50;99.90;;;;;;4972833;28;19922;-83
2023/01/07 11:13:30;;;;;;;;;;;10.50;99.90;;;;;;4981057;28;19926;-83
2023/01/07 11:16:15;;;;;;;;;;;10.50;99.90;;;;;;4973586;28;20389;-83
2023/01/07 11:18:59;;;;;;;;;;;10.60;99.90;;;;;;4972453;28;19926;-83
2023/01/07 11:21:32;;;;;;;;;;;10.60;99.90;;;;;;4973937;28;20008;-83
2023/01/07 11:23:58;;;;;;;;;;;10.60;99.90;;;;;;4975188;28;19988;-83
2023/01/07 11:26:24;;;;;;;;;;;10.70;99.90;;;;;;4974274;28;19996;-83
2023/01/07 11:28:52;;;;;;;;;;;10.70;99.90;;;;;;4953955;28;19940;-82
2023/01/07 11:31:18;;;;;;;;;;;10.70;99.90;;;;;;4975943;28;19936;-82
2023/01/07 11:33:51;;;;;;;;;;;10.80;99.90;;;;;;4971753;28;19922;-82
2023/01/07 11:36:17;;;;;;;;;;;10.80;99.90;;;;;;4957169;28;19928;-83
2023/01/07 11:38:42;;;;;;;;;;;10.80;99.90;;;;;;4976674;28;19917;-82
2023/01/07 11:41:24;;;;;;;;;;;10.80;99.90;;;;;;4977054;28;19985;-83
2023/01/07 11:43:51;;;;;;;;;;;10.80;99.90;;;;;;4975056;28;19925;-82
2023/01/07 11:46:17;;;;;;;;;;;10.90;99.90;;;;;;4970993;28;20000;-83
2023/01/07 11:48:48;;;;;;;;;;;11.20;99.90;;;;;;4975472;28;19925;-83
2023/01/07 11:51:14;;;;;;;;;;;10.90;99.90;;;;;;4973270;28;20396;-82
2023/01/07 11:53:44;;;;;;;;;;;10.90;99.90;;;;;;4971719;28;19918;-82
2023/01/07 11:56:13;;;;;;;;;;;10.90;99.90;;;;;;4977981;28;19929;-83
2023/01/07 11:58:41;;;;;;;;;;;10.90;99.90;;;;;;4980670;28;19928;-82
2023/01/07 12:01:07;;;;;;;;;;;11.00;99.90;;;;;;4957240;28;19930;-82
2023/01/07 12:03:51;;;;;;;;;;;10.80;99.90;;;;;;4974596;28;19925;-83
2023/01/07 12:06:18;;;;;;;;;;;10.80;99.90;;;;;;4974551;28;19924;-82
2023/01/07 12:08:51;;;;;;;;;;;10.80;99.90;;;;;;4974846;28;19931;-82
2023/01/07 12:11:16;;;;;;;;;;;10.80;99.90;;;;;;4957829;28;19917;-83
2023/01/07 12:13:54;;;;;;;;;;;10.80;99.90;;;;;;4959089;28;20384;-82
2023/01/07 12:16:24;;;;;;;;;;;10.80;99.90;;;;;;4983333;28;19922;-82
2023/01/07 12:19:02;;;;;;;;;;;11.00;99.90;;;;;;4960688;28;19925;-83
2023/01/07 12:21:31;;;;;;;;;;;10.90;99.90;;;;;;4973643;28;19921;-82
2023/01/07 12:24:02;;;;;;;;;;;10.90;99.90;;;;;;4974480;28;19964;-82
2023/01/07 12:26:31;;;;;;;;;;;10.90;99.90;;;;;;4974642;28;19922;-83
2023/01/07 12:28:56;;;;;;;;;;;11.00;99.90;;;;;;4980602;28;19921;-83
2023/01/07 12:31:30;;;;;;;;;;;11.40;99.90;;;;;;4962272;28;19930;-82
2023/01/07 12:34:02;;;;;;;;;;;10.90;99.90;;;;;;4984227;28;19925;-83
2023/01/07 12:36:34;;;;;;;;;;;11.00;99.90;;;;;;4974646;28;19984;-82
2023/01/07 12:39:02;;;;;;;;;;;11.10;99.90;;;;;;4957000;28;20380;-82
2023/01/07 12:41:32;;;;;;;;;;;11.10;99.90;;;;;;4973265;28;20435;-83
2023/01/07 12:44:01;;;;;;;;;;;11.10;99.90;;;;;;4962334;28;20468;-82
2023/01/07 12:46:34;;;;;;;;;;;11.20;99.90;;;;;;4977553;28;19922;-83
2023/01/07 12:49:18;;;;;;;;;;;11.20;99.90;;;;;;4976495;28;20282;-83
2023/01/07 12:51:59;;;;;;;;;;;11.20;99.90;;;;;;4981316;28;20278;-83
2023/01/07 12:54:31;;;;;;;;;;;11.10;99.90;;;;;;4957587;28;20008;-82
2023/01/07 12:57:02;;;;;;;;;;;11.10;99.90;;;;;;4974406;28;20384;-82
2023/01/07 12:59:35;;;;;;;;;;;11.10;99.90;;;;;;4984670;28;19918;-82
2023/01/07 13:02:09;;;;;;;;;;;11.10;99.90;;;;;;4977311;28;19933;-82
2023/01/07 13:04:45;;;;;;;;;;;11.00;99.90;;;;;;4973823;28;20461;-82
2023/01/07 13:07:14;;;;;;;;;;;11.00;99.90;;;;;;4967483;28;19924;-82
2023/01/07 13:09:58;;;;;;;;;;;11.10;99.90;;;;;;4978151;28;19988;-83
2023/01/07 13:12:43;;;;;;;;;;;11.10;99.90;;;;;;4974200;28;20296;-82
2023/01/07 13:15:11;;;;;;;;;;;11.00;99.90;;;;;;4973282;28;20369;-82
2023/01/07 13:17:37;;;;;;;;;;;11.00;99.90;;;;;;4960535;28;20404;-82
2023/01/07 13:20:06;;;;;;;;;;;10.90;99.90;;;;;;4974187;28;19962;-82
2023/01/07 13:22:50;;;;;;;;;;;10.90;99.90;;;;;;4955757;28;19929;-83
2023/01/07 13:25:15;;;;;;;;;;;10.90;99.90;;;;;;4972969;28;20016;-82
2023/01/07 13:27:41;;;;;;;;;;;11.50;99.90;;;;;;4956214;28;20004;-83
2023/01/07 13:30:23;;;;;;;;;;;10.90;99.90;;;;;;4959993;28;19941;-82
2023/01/07 13:32:59;;;;;;;;;;;10.90;99.90;;;;;;4956780;28;20530;-84
2023/01/07 13:35:45;;;;;;;;;;;10.90;99.90;;;;;;4950907;28;19987;-85
2023/01/07 13:38:34;;;;;;;;;;;10.90;99.90;;;;;;4975193;28;20352;-83
2023/01/07 13:41:06;;;;;;;;;;;10.90;99.90;;;;;;4917638;29;20307;-84
2023/01/07 13:43:46;;;;;;;;;;;10.90;99.90;;;;;;4922014;29;19918;-85
2023/01/07 13:46:14;;;;;;;;;;;10.90;99.90;;;;;;4908739;29;19953;-85
2023/01/07 13:48:45;;;;;;;;;;;10.90;99.90;;;;;;4925755;29;19922;-85
2023/01/07 13:51:11;;;;;;;;;;;11.10;99.90;;;;;;4924644;29;19977;-85
2023/01/07 13:53:38;;;;;;;;;;;10.90;99.90;;;;;;4924828;29;20370;-86
2023/01/07 13:56:16;;;;;;;;;;;11.10;99.90;;;;;;4928232;29;19982;-84
2023/01/07 13:58:44;;;;;;;;;;;10.80;99.90;;;;;;4925076;29;19926;-87
2023/01/07 14:01:10;;;;;;;;;;;10.80;99.90;;;;;;4923925;29;19943;-84
2023/01/07 14:03:40;;;;;;;;;;;10.80;99.90;;;;;;4930805;29;19922;-86
2023/01/07 14:06:17;;;;;;;;;;;10.80;99.90;;;;;;4912047;29;19922;-85
2023/01/07 14:08:44;;;;;;;;;;;10.70;99.90;;;;;;4911073;29;19937;-85
2023/01/07 14:11:09;;;;;;;;;;;10.70;99.90;;;;;;4906748;29;19962;-84
2023/01/07 14:13:49;;;;;;;;;;;10.70;99.90;;;;;;4905504;29;19923;-84
2023/01/07 14:16:25;;;;;;;;;;;10.70;99.90;;;;;;4913586;29;20298;-86
2023/01/07 14:18:51;;;;;;;;;;;10.70;99.90;;;;;;4970057;28;19980;-86
2023/01/07 14:21:29;;;;;;;;;;;10.60;99.90;;;;;;4981658;28;19949;-85
2023/01/07 14:24:13;;;;;;;;;;;10.60;99.90;;;;;;4980218;28;19929;-86
2023/01/07 14:26:57;;;;;;;;;;;10.60;99.90;;;;;;4982318;28;19930;-87
2023/01/07 14:29:26;;;;;;;;;;;10.60;99.90;;;;;;4975300;28;19925;-86
2023/01/07 14:31:51;;;;;;;;;;;10.50;99.90;;;;;;4965767;28;19993;-87